createdAt,value
2023-03-06T00:03:22.065Z,35
2023-03-06T00:08:29.991Z,36
2023-03-06T00:13:38.071Z,36
2023-03-06T00:18:45.925Z,36
2023-03-06T00:23:53.884Z,35
2023-03-06T00:29:01.997Z,36
2023-03-06T00:34:09.807Z,36
2023-03-06T00:39:17.808Z,36
2023-03-06T00:44:25.778Z,37
2023-03-06T00:49:33.688Z,38
2023-03-06T00:54:39.859Z,37
2023-03-06T00:59:46.112Z,38
2023-03-06T01:04:52.219Z,37
2023-03-06T01:09:58.406Z,38
2023-03-06T01:15:04.599Z,38
2023-03-06T01:20:10.743Z,38
2023-03-06T01:25:16.946Z,38
2023-03-06T01:30:23.117Z,38
2023-03-06T01:35:29.302Z,38
2023-03-06T01:40:35.457Z,38
2023-03-06T01:45:43.902Z,38
2023-03-06T01:50:51.395Z,38
2023-03-06T01:55:59.320Z,38
2023-03-06T02:01:07.352Z,37
2023-03-06T02:06:15.251Z,37
2023-03-06T02:11:23.286Z,37
2023-03-06T02:16:31.235Z,38
2023-03-06T02:21:39.103Z,37
2023-03-06T02:26:47.063Z,37
2023-03-06T02:31:55.067Z,37
2023-03-06T02:37:02.986Z,37
2023-03-06T02:52:26.920Z,37
2023-03-06T02:57:33.077Z,37
2023-03-06T03:02:41.027Z,37
2023-03-06T03:07:48.999Z,37
2023-03-06T03:12:56.919Z,37
2023-03-06T03:18:04.912Z,37
2023-03-06T03:23:12.865Z,37
2023-03-06T03:28:20.802Z,37
2023-03-06T03:33:28.786Z,37
2023-03-06T03:38:34.992Z,37
2023-03-06T03:43:43.032Z,37
2023-03-06T03:48:50.852Z,37
2023-03-06T03:53:58.864Z,37
2023-03-06T03:59:06.800Z,37
2023-03-06T04:04:14.752Z,37
2023-03-06T04:09:22.740Z,37
2023-03-06T04:14:30.676Z,37
2023-03-06T04:19:38.627Z,37
2023-03-06T04:24:46.630Z,37
2023-03-06T04:29:54.579Z,37
2023-03-06T04:35:02.538Z,37
2023-03-06T04:40:10.514Z,37
2023-03-06T04:45:18.478Z,37
2023-03-06T04:50:26.441Z,37
2023-03-06T04:55:34.440Z,37
2023-03-06T05:00:42.384Z,37
2023-03-06T05:05:50.308Z,37
2023-03-06T05:10:56.514Z,37
2023-03-06T05:16:02.672Z,38
2023-03-06T05:21:08.864Z,38
2023-03-06T05:26:15.051Z,38
2023-03-06T05:31:23.088Z,38
2023-03-06T05:36:29.176Z,38
2023-03-06T05:41:35.380Z,38
2023-03-06T05:46:41.538Z,38
2023-03-06T05:51:47.684Z,39
2023-03-06T05:56:55.657Z,39
2023-03-06T06:02:03.662Z,39
2023-03-06T06:07:09.799Z,39
2023-03-06T06:12:16.362Z,39
2023-03-06T06:17:23.918Z,39
2023-03-06T06:22:31.872Z,39
2023-03-06T06:27:39.873Z,39
2023-03-06T06:32:46.014Z,39
2023-03-06T06:37:52.222Z,39
2023-03-06T06:42:58.390Z,39
2023-03-06T06:48:04.620Z,39
2023-03-06T06:53:12.519Z,39
2023-03-06T06:58:20.474Z,39
2023-03-06T07:03:26.641Z,39
2023-03-06T07:08:34.633Z,39
2023-03-06T07:13:42.745Z,39
2023-03-06T07:18:50.539Z,39
2023-03-06T07:23:58.492Z,39
2023-03-06T07:29:06.503Z,39
2023-03-06T07:34:12.631Z,39
2023-03-06T07:39:18.792Z,38
2023-03-06T07:44:26.804Z,39
2023-03-06T07:49:34.740Z,39
2023-03-06T07:54:40.924Z,38
2023-03-06T07:59:48.899Z,38
2023-03-06T08:04:56.843Z,38
2023-03-06T08:10:04.793Z,38
2023-03-06T08:15:12.774Z,38
2023-03-06T08:20:20.709Z,38
2023-03-06T08:25:28.664Z,39
2023-03-06T08:30:36.689Z,39
2023-03-06T08:35:44.685Z,39
2023-03-06T08:40:52.552Z,39
2023-03-06T08:46:00.666Z,39
2023-03-06T08:51:08.488Z,39
2023-03-06T08:56:16.449Z,39
2023-03-06T09:01:24.486Z,39
2023-03-06T09:06:32.407Z,39
2023-03-06T09:11:40.337Z,38
2023-03-06T09:16:48.475Z,39
2023-03-06T09:21:56.263Z,39
2023-03-06T09:27:04.219Z,38
2023-03-06T09:32:12.427Z,38
2023-03-06T09:37:20.169Z,38
2023-03-06T09:42:28.108Z,39
2023-03-06T09:47:36.075Z,39
2023-03-06T09:52:44.059Z,39
2023-03-06T09:57:52.373Z,39
2023-03-06T10:03:00.169Z,39
2023-03-06T10:08:07.887Z,39
2023-03-06T10:13:15.889Z,39
2023-03-06T10:18:23.826Z,39
2023-03-06T10:23:31.783Z,39
2023-03-06T10:28:39.714Z,38
2023-03-06T10:33:47.701Z,38
2023-03-06T10:38:55.623Z,38
2023-03-06T10:44:03.581Z,38
2023-03-06T10:49:09.800Z,38
2023-03-06T10:54:17.736Z,38
2023-03-06T10:59:25.729Z,38
2023-03-06T11:04:33.758Z,37
2023-03-06T11:09:41.593Z,37
2023-03-06T11:14:49.532Z,37
2023-03-06T11:19:55.727Z,37
2023-03-06T11:25:02.073Z,37
2023-03-06T11:30:09.872Z,37
2023-03-06T11:35:16.043Z,37
2023-03-06T11:40:22.204Z,37
2023-03-06T11:45:28.376Z,37
2023-03-06T11:50:36.347Z,36
2023-03-06T11:55:44.296Z,36
2023-03-06T12:00:52.255Z,36
2023-03-06T12:06:00.223Z,36
2023-03-06T12:16:16.176Z,36
2023-03-06T12:21:24.103Z,35
2023-03-06T12:26:32.037Z,35
2023-03-06T12:36:48.022Z,34
2023-03-06T12:41:55.948Z,34
2023-03-06T12:47:03.882Z,34
2023-03-06T12:52:12.465Z,33
2023-03-06T12:57:19.821Z,33
2023-03-06T13:02:27.835Z,33
2023-03-06T13:07:35.758Z,33
2023-03-06T13:12:43.695Z,32
2023-03-06T13:17:51.664Z,32
2023-03-06T13:22:59.625Z,31
2023-03-06T13:28:07.581Z,31
2023-03-06T13:33:15.529Z,31
2023-03-06T13:38:23.532Z,31
2023-03-06T13:43:32.024Z,31
2023-03-06T13:48:45.346Z,30
2023-03-06T13:53:45.661Z,30
2023-03-06T13:58:51.765Z,30
2023-03-06T14:09:07.678Z,29
2023-03-06T14:14:15.598Z,29
2023-03-06T14:19:23.588Z,29
2023-03-06T14:24:31.520Z,29
2023-03-06T14:29:39.449Z,28
2023-03-06T14:34:47.426Z,28
2023-03-06T14:39:55.430Z,28
2023-03-06T14:45:01.595Z,28
2023-03-06T14:50:07.726Z,28
2023-03-06T14:55:15.700Z,27
2023-03-06T15:00:21.893Z,27
2023-03-06T15:05:29.805Z,27
2023-03-06T15:10:37.855Z,27
2023-03-06T15:15:43.918Z,26
2023-03-06T15:20:50.086Z,26
2023-03-06T15:25:58.129Z,26
2023-03-06T15:31:05.997Z,26
2023-03-06T15:36:13.953Z,26
2023-03-06T15:41:21.926Z,26
2023-03-06T15:46:29.851Z,26
2023-03-06T15:51:37.819Z,26
2023-03-06T15:56:44.024Z,26
2023-03-06T16:01:50.212Z,26
2023-03-06T16:06:58.153Z,26
2023-03-06T16:12:06.169Z,25
2023-03-06T16:17:14.029Z,25
2023-03-06T16:22:22.002Z,25
2023-03-06T16:27:29.960Z,25
2023-03-06T16:32:38.025Z,25
2023-03-06T16:37:45.856Z,24
2023-03-06T16:42:55.113Z,24
2023-03-06T16:48:01.777Z,24
2023-03-06T16:53:09.758Z,24
2023-03-06T16:58:17.711Z,24
2023-03-06T17:03:25.636Z,24
2023-03-06T17:08:33.585Z,23
2023-03-06T17:13:41.763Z,23
2023-03-06T17:18:49.517Z,23
2023-03-06T17:23:57.494Z,23
2023-03-06T17:29:07.120Z,23
2023-03-06T17:34:13.386Z,23
2023-03-06T17:39:21.338Z,22
2023-03-06T17:44:29.313Z,22
2023-03-06T17:49:37.260Z,22
2023-03-06T17:54:45.196Z,22
2023-03-06T17:59:51.415Z,22
2023-03-06T18:04:57.609Z,22
2023-03-06T18:10:05.497Z,23
2023-03-06T18:15:11.763Z,23
2023-03-06T18:20:17.834Z,23
2023-03-06T18:25:24.050Z,23
2023-03-06T18:30:32.010Z,23
2023-03-06T18:35:39.958Z,23
2023-03-06T18:40:47.881Z,22
2023-03-06T18:45:55.853Z,22
2023-03-06T18:51:01.995Z,21
2023-03-06T18:56:09.955Z,21
2023-03-06T19:01:16.252Z,21
2023-03-06T19:06:24.585Z,21
2023-03-06T19:11:32.035Z,20
2023-03-06T19:16:40.142Z,20
2023-03-06T19:21:47.957Z,20
2023-03-06T19:26:54.111Z,20
2023-03-06T19:32:02.187Z,20
2023-03-06T19:37:10.018Z,20
2023-03-06T19:42:16.188Z,20
2023-03-06T19:47:22.384Z,20
2023-03-06T19:52:28.545Z,20
2023-03-06T19:57:36.493Z,20
2023-03-06T20:02:44.467Z,20
2023-03-06T20:07:52.403Z,20
2023-03-06T20:12:58.590Z,20
2023-03-06T20:18:06.558Z,20
2023-03-06T20:23:16.520Z,20
2023-03-06T20:28:22.406Z,20
2023-03-06T20:33:30.404Z,20
2023-03-06T20:38:38.322Z,20
2023-03-06T20:43:46.279Z,20
2023-03-06T20:48:54.319Z,21
2023-03-06T20:54:02.190Z,22
2023-03-06T20:59:10.146Z,23
2023-03-06T21:04:18.137Z,24
2023-03-06T21:09:26.090Z,24
2023-03-06T21:14:34.028Z,24
2023-03-06T21:19:42.164Z,25
2023-03-06T21:24:49.948Z,25
2023-03-06T21:29:57.920Z,26
2023-03-06T21:35:05.885Z,27
2023-03-06T21:40:13.814Z,27
2023-03-06T21:45:21.781Z,27
2023-03-06T21:50:29.770Z,27
2023-03-06T21:55:37.698Z,27
2023-03-06T22:00:45.682Z,27
2023-03-06T22:05:53.628Z,27
2023-03-06T22:11:01.556Z,27
2023-03-06T22:16:09.576Z,27
2023-03-06T22:21:15.732Z,27
2023-03-06T22:26:21.869Z,27
2023-03-06T22:31:29.939Z,27
2023-03-06T22:36:36.009Z,27
2023-03-06T22:41:42.163Z,27
2023-03-06T22:46:50.103Z,27
2023-03-06T22:51:58.098Z,27
2023-03-06T22:57:04.236Z,27
2023-03-06T23:02:12.200Z,27
2023-03-06T23:07:20.152Z,27
2023-03-06T23:12:28.100Z,27
2023-03-06T23:17:36.052Z,27
2023-03-06T23:22:44.049Z,27
2023-03-06T23:27:50.171Z,27
2023-03-06T23:32:58.171Z,28
2023-03-06T23:38:06.102Z,28
2023-03-06T23:43:14.036Z,28
2023-03-06T23:48:21.998Z,28
2023-03-06T23:53:28.205Z,28
2023-03-06T23:58:36.136Z,28
